Agana Heights, GU

5:39 PM ChST on July 26, 2014 (GMT +1000)
Rota I International (PGRO) Elev 607 ft | 14.17 °N, 145.24 °E | Change Station

Current weather conditions updated 44 minutes ago

Mostly Cloudy
Mostly Cloudy
81 °F
Feels Like 86 °F
N
13
Wind Variable Wind from SW
Gusts 17 mph

Tomorrow is forecast to be nearly the same temperature as today. Thunderstorms.

Today
High -- | Low -- °F
--% Chance of Precip.
Yesterday
High -- | Low -- °F
Precip. -- in
6:04 AM 6:50 PM
Waning Crescent, 0% visible
Pressure 29.80 in
Visibility 7.0 miles
Clouds Scattered Clouds 2500 ft
Mostly Cloudy 12000 ft
Heat Index 86 °F
Dew Point 75 °F
Humidity 84%
Rainfall 0.00 in
Snow Depth Not available.
UV 2 out of 12
Pollen Not available.
Air Quality Not available.
Flu Activity Not available.
METAR PGRO 260655Z 22011G15KT 180V250 7SM SCT025 BKN120 27/24 A2980

More Conditions Fewer Conditions

Pressure 29.80 in
Visibility 7.0 miles
Clouds Scattered Clouds 2500 ft
Mostly Cloudy 12000 ft
Heat Index 86 °F
Dew Point 75 °F
Humidity 84%
Rainfall 0.00 in
Snow Depth Not available.
UV 2 out of 12
Pollen Not available.
Air Quality Not available.
Flu Activity Not available.
METAR PGRO 260655Z 22011G15KT 180V250 7SM SCT025 BKN120 27/24 A2980

More Conditions Fewer Conditions

10-Day Weather Forecast

Almanac

Astronomy

Jul. 26, 2014 Rise Set
Actual Time 6:04 AM ChST 6:50 PM ChST
Civil Twilight 5:41 AM ChST 7:13 PM ChST
Nautical Twilight 5:14 AM ChST 7:40 PM ChST
Astronomical Twilight 4:47 AM ChST 8:07 PM ChST
Moon 5:15 AM ChST 6:11 PM ChST
Length of Visible Light 13h 31m
Length of Day
12h 46m
Tomorrow will be 0m 29s shorter.
Waning Crescent, 0% of the Moon is Illuminated
Today
Waning Crescent
Jul 26
New
Aug 3
First Quarter
Aug 10
Full
Aug 17
Last Quarter

Community

WunderPhotos

Upload Photos

1,737,527 photos uploaded!

Nearby

Snow Depth

Station Depth Elevation
No new snow has been reported.

Earthquake Activity

City Distance Mag. Time & Date
No recent earthquake activity has been reported nearby.
Minimum magnitude displayed is 2.5.

Coastal Water Temperatures

Place Temperature
No Stations Reporting

Nearby Weather Stations

Station Location Temp. Heat Index Dew Point Humidity Wind Precip. Elev Updated Type
Maite, Maite, GU 81.7 °F 89 °F 76 °F 83% SW  at  8.0 mph 0.00 in / hr 140 ft 5:39 PM ChST Rapid Fire
Ordot Dump, Chalan Pago Ordot 80.4 °F 86 °F 76 °F 87% WSW  at  11.0 mph 0.00 in / hr 282 ft 5:39 PM ChST Rapid Fire
Perezville, Tamuning, Guam 82.3 °F 90 °F 75 °F 80% SSE  at  13.0 mph 0.00 in / hr 120 ft 5:35 PM ChST Normal
Mangilao, Mangilao, GU 80.8 °F 85 °F 71 °F 73% SSW  at  6.0 mph 0.00 in / hr 361 ft 5:39 PM ChST Rapid Fire
Jeffs Pirates Cove, Guam, Ipan Talofofo, GU 81.1 °F 88 °F 76 °F 86% SSW  at  2.0 mph 0.00 in / hr 27 ft 5:39 PM ChST Rapid Fire
Ypaopao Estates, Dededo 81.3 °F 88 °F 76 °F 83% SW  at  2.9 mph 0.00 in / hr 420 ft 5:37 PM ChST Rapid Fire

Show More Stations Show Fewer Stations